sensor_id;sensor_type;location;lat;lon;timestamp;P1;durP1;ratioP1;P2;durP2;ratioP2
45077;SDS011;60508;42.622;25.416;2023-12-28T00:02:07;6.75;;;3.20;;
45077;SDS011;60508;42.622;25.416;2023-12-28T00:04:55;5.97;;;4.65;;
45077;SDS011;60508;42.622;25.416;2023-12-28T00:07:22;3.80;;;2.90;;
45077;SDS011;60508;42.622;25.416;2023-12-28T00:10:08;12.57;;;3.03;;
45077;SDS011;60508;42.622;25.416;2023-12-28T00:12:35;5.68;;;3.28;;
45077;SDS011;60508;42.622;25.416;2023-12-28T00:15:02;5.43;;;3.33;;
45077;SDS011;60508;42.622;25.416;2023-12-28T00:17:30;4.85;;;2.95;;
45077;SDS011;60508;42.622;25.416;2023-12-28T00:19:57;6.38;;;3.20;;
45077;SDS011;60508;42.622;25.416;2023-12-28T00:22:24;4.32;;;3.08;;
45077;SDS011;60508;42.622;25.416;2023-12-28T00:25:12;1.70;;;1.60;;
45077;SDS011;60508;42.622;25.416;2023-12-28T00:27:39;4.63;;;2.63;;
45077;SDS011;60508;42.622;25.416;2023-12-28T00:30:06;5.07;;;2.67;;
45077;SDS011;60508;42.622;25.416;2023-12-28T00:32:33;4.55;;;3.00;;
45077;SDS011;60508;42.622;25.416;2023-12-28T00:35:01;8.63;;;3.63;;
45077;SDS011;60508;42.622;25.416;2023-12-28T00:37:28;6.45;;;3.25;;
45077;SDS011;60508;42.622;25.416;2023-12-28T00:39:55;5.60;;;3.17;;
45077;SDS011;60508;42.622;25.416;2023-12-28T00:42:22;3.38;;;2.45;;
45077;SDS011;60508;42.622;25.416;2023-12-28T00:44:49;3.88;;;2.22;;
45077;SDS011;60508;42.622;25.416;2023-12-28T00:47:35;3.38;;;2.60;;
45077;SDS011;60508;42.622;25.416;2023-12-28T00:50:07;4.38;;;2.65;;
45077;SDS011;60508;42.622;25.416;2023-12-28T00:52:34;4.18;;;2.28;;
45077;SDS011;60508;42.622;25.416;2023-12-28T00:55:21;3.67;;;2.72;;
45077;SDS011;60508;42.622;25.416;2023-12-28T00:57:48;3.58;;;2.72;;
45077;SDS011;60508;42.622;25.416;2023-12-28T01:00:15;6.97;;;2.75;;
45077;SDS011;60508;42.622;25.416;2023-12-28T01:02:42;4.78;;;2.10;;
45077;SDS011;60508;42.622;25.416;2023-12-28T01:05:13;3.72;;;1.95;;
45077;SDS011;60508;42.622;25.416;2023-12-28T01:07:41;5.03;;;2.78;;
45077;SDS011;60508;42.622;25.416;2023-12-28T01:10:28;3.55;;;1.92;;
45077;SDS011;60508;42.622;25.416;2023-12-28T01:12:55;4.47;;;2.00;;
45077;SDS011;60508;42.622;25.416;2023-12-28T01:15:22;2.35;;;1.70;;
45077;SDS011;60508;42.622;25.416;2023-12-28T01:17:49;3.70;;;2.67;;
45077;SDS011;60508;42.622;25.416;2023-12-28T01:20:16;3.55;;;2.03;;
45077;SDS011;60508;42.622;25.416;2023-12-28T01:22:43;2.25;;;1.70;;
45077;SDS011;60508;42.622;25.416;2023-12-28T01:25:10;8.02;;;2.58;;
45077;SDS011;60508;42.622;25.416;2023-12-28T01:27:37;6.60;;;1.63;;
45077;SDS011;60508;42.622;25.416;2023-12-28T01:30:04;3.85;;;1.70;;
45077;SDS011;60508;42.622;25.416;2023-12-28T01:32:32;3.53;;;2.00;;
45077;SDS011;60508;42.622;25.416;2023-12-28T01:34:59;3.35;;;2.70;;
45077;SDS011;60508;42.622;25.416;2023-12-28T01:37:46;4.00;;;1.95;;
45077;SDS011;60508;42.622;25.416;2023-12-28T01:40:14;2.80;;;1.90;;
45077;SDS011;60508;42.622;25.416;2023-12-28T01:42:41;2.90;;;2.40;;
45077;SDS011;60508;42.622;25.416;2023-12-28T01:45:09;3.20;;;1.95;;
45077;SDS011;60508;42.622;25.416;2023-12-28T01:47:56;6.50;;;3.42;;
45077;SDS011;60508;42.622;25.416;2023-12-28T01:50:25;3.03;;;2.15;;
45077;SDS011;60508;42.622;25.416;2023-12-28T01:52:54;4.57;;;2.20;;
45077;SDS011;60508;42.622;25.416;2023-12-28T01:55:41;5.60;;;2.50;;
45077;SDS011;60508;42.622;25.416;2023-12-28T01:58:09;3.20;;;1.77;;
45077;SDS011;60508;42.622;25.416;2023-12-28T02:00:36;2.70;;;2.05;;
45077;SDS011;60508;42.622;25.416;2023-12-28T02:03:05;3.00;;;1.77;;
45077;SDS011;60508;42.622;25.416;2023-12-28T02:05:33;3.50;;;1.88;;
45077;SDS011;60508;42.622;25.416;2023-12-28T02:08:20;2.65;;;2.10;;
45077;SDS011;60508;42.622;25.416;2023-12-28T02:10:47;2.67;;;1.92;;
45077;SDS011;60508;42.622;25.416;2023-12-28T02:13:14;4.38;;;1.42;;
45077;SDS011;60508;42.622;25.416;2023-12-28T02:15:41;3.13;;;1.63;;
45077;SDS011;60508;42.622;25.416;2023-12-28T02:18:14;3.93;;;1.10;;
45077;SDS011;60508;42.622;25.416;2023-12-28T02:20:47;3.00;;;1.98;;
45077;SDS011;60508;42.622;25.416;2023-12-28T02:23:16;3.00;;;1.60;;
45077;SDS011;60508;42.622;25.416;2023-12-28T02:25:43;1.60;;;1.40;;
45077;SDS011;60508;42.622;25.416;2023-12-28T02:28:10;2.65;;;1.48;;
45077;SDS011;60508;42.622;25.416;2023-12-28T02:30:36;2.35;;;1.63;;
45077;SDS011;60508;42.622;25.416;2023-12-28T02:38:21;2.30;;;1.52;;
45077;SDS011;60508;42.622;25.416;2023-12-28T02:40:50;2.83;;;1.65;;
45077;SDS011;60508;42.622;25.416;2023-12-28T02:43:18;3.38;;;2.08;;
45077;SDS011;60508;42.622;25.416;2023-12-28T02:45:45;2.83;;;2.38;;
45077;SDS011;60508;42.622;25.416;2023-12-28T02:48:12;3.58;;;2.22;;
45077;SDS011;60508;42.622;25.416;2023-12-28T02:50:39;4.07;;;1.90;;
45077;SDS011;60508;42.622;25.416;2023-12-28T02:53:05;3.50;;;1.67;;
45077;SDS011;60508;42.622;25.416;2023-12-28T02:55:52;4.55;;;2.15;;
45077;SDS011;60508;42.622;25.416;2023-12-28T02:58:19;3.88;;;2.08;;
45077;SDS011;60508;42.622;25.416;2023-12-28T03:00:47;3.88;;;2.20;;
45077;SDS011;60508;42.622;25.416;2023-12-28T03:03:16;8.32;;;2.92;;
45077;SDS011;60508;42.622;25.416;2023-12-28T03:05:42;4.32;;;2.05;;
45077;SDS011;60508;42.622;25.416;2023-12-28T03:08:09;6.57;;;2.25;;
45077;SDS011;60508;42.622;25.416;2023-12-28T03:10:36;2.58;;;2.13;;
45077;SDS011;60508;42.622;25.416;2023-12-28T03:13:03;4.88;;;2.17;;
45077;SDS011;60508;42.622;25.416;2023-12-28T03:15:50;1.90;;;1.33;;
45077;SDS011;60508;42.622;25.416;2023-12-28T03:18:16;2.33;;;1.23;;
45077;SDS011;60508;42.622;25.416;2023-12-28T03:20:44;3.60;;;1.40;;
45077;SDS011;60508;42.622;25.416;2023-12-28T03:23:30;2.42;;;1.33;;
45077;SDS011;60508;42.622;25.416;2023-12-28T03:26:00;2.70;;;1.73;;
45077;SDS011;60508;42.622;25.416;2023-12-28T03:28:27;3.78;;;1.92;;
45077;SDS011;60508;42.622;25.416;2023-12-28T03:30:54;6.63;;;1.85;;
45077;SDS011;60508;42.622;25.416;2023-12-28T03:33:41;6.03;;;2.70;;
45077;SDS011;60508;42.622;25.416;2023-12-28T03:36:08;7.38;;;3.60;;
45077;SDS011;60508;42.622;25.416;2023-12-28T03:39:05;6.18;;;3.92;;
45077;SDS011;60508;42.622;25.416;2023-12-28T03:41:32;5.65;;;3.33;;
45077;SDS011;60508;42.622;25.416;2023-12-28T03:43:59;10.30;;;3.38;;
45077;SDS011;60508;42.622;25.416;2023-12-28T03:46:50;6.47;;;3.63;;
45077;SDS011;60508;42.622;25.416;2023-12-28T03:49:20;6.55;;;3.10;;
45077;SDS011;60508;42.622;25.416;2023-12-28T03:51:48;7.00;;;4.07;;
45077;SDS011;60508;42.622;25.416;2023-12-28T03:54:17;4.65;;;2.38;;
45077;SDS011;60508;42.622;25.416;2023-12-28T03:56:45;6.63;;;3.28;;
45077;SDS011;60508;42.622;25.416;2023-12-28T03:59:12;3.35;;;2.63;;
45077;SDS011;60508;42.622;25.416;2023-12-28T04:01:41;7.57;;;4.32;;
45077;SDS011;60508;42.622;25.416;2023-12-28T04:04:08;6.10;;;4.05;;
45077;SDS011;60508;42.622;25.416;2023-12-28T04:06:34;6.53;;;3.03;;
45077;SDS011;60508;42.622;25.416;2023-12-28T04:09:21;2.78;;;2.00;;
45077;SDS011;60508;42.622;25.416;2023-12-28T04:11:48;6.78;;;3.05;;
45077;SDS011;60508;42.622;25.416;2023-12-28T04:14:35;4.90;;;2.45;;
45077;SDS011;60508;42.622;25.416;2023-12-28T04:17:02;4.55;;;2.75;;
45077;SDS011;60508;42.622;25.416;2023-12-28T04:19:30;14.30;;;7.05;;
45077;SDS011;60508;42.622;25.416;2023-12-28T04:22:17;7.40;;;3.15;;
45077;SDS011;60508;42.622;25.416;2023-12-28T04:24:44;4.70;;;2.55;;
45077;SDS011;60508;42.622;25.416;2023-12-28T04:27:10;4.38;;;2.47;;
45077;SDS011;60508;42.622;25.416;2023-12-28T04:29:37;4.43;;;2.55;;
45077;SDS011;60508;42.622;25.416;2023-12-28T04:32:04;5.05;;;3.15;;
45077;SDS011;60508;42.622;25.416;2023-12-28T04:34:31;6.07;;;3.72;;
45077;SDS011;60508;42.622;25.416;2023-12-28T04:36:58;8.05;;;4.20;;
45077;SDS011;60508;42.622;25.416;2023-12-28T04:39:45;8.07;;;4.30;;
45077;SDS011;60508;42.622;25.416;2023-12-28T04:42:12;7.35;;;3.33;;
45077;SDS011;60508;42.622;25.416;2023-12-28T04:44:59;4.65;;;3.22;;
45077;SDS011;60508;42.622;25.416;2023-12-28T04:47:25;10.55;;;4.40;;
45077;SDS011;60508;42.622;25.416;2023-12-28T04:49:52;10.00;;;3.58;;
45077;SDS011;60508;42.622;25.416;2023-12-28T04:52:19;7.18;;;4.40;;
45077;SDS011;60508;42.622;25.416;2023-12-28T04:54:46;8.68;;;4.32;;
45077;SDS011;60508;42.622;25.416;2023-12-28T04:57:12;6.82;;;2.92;;
45077;SDS011;60508;42.622;25.416;2023-12-28T04:59:39;2.95;;;2.70;;
45077;SDS011;60508;42.622;25.416;2023-12-28T05:02:06;3.92;;;2.67;;
45077;SDS011;60508;42.622;25.416;2023-12-28T05:04:36;3.30;;;2.50;;
45077;SDS011;60508;42.622;25.416;2023-12-28T05:07:24;5.07;;;1.95;;
45077;SDS011;60508;42.622;25.416;2023-12-28T05:09:51;5.20;;;1.92;;
45077;SDS011;60508;42.622;25.416;2023-12-28T05:12:38;3.13;;;2.15;;
45077;SDS011;60508;42.622;25.416;2023-12-28T05:15:05;3.03;;;1.98;;
45077;SDS011;60508;42.622;25.416;2023-12-28T05:17:32;5.30;;;4.82;;
45077;SDS011;60508;42.622;25.416;2023-12-28T05:19:59;4.47;;;3.25;;
45077;SDS011;60508;42.622;25.416;2023-12-28T05:22:26;4.90;;;3.67;;
45077;SDS011;60508;42.622;25.416;2023-12-28T05:24:52;6.05;;;1.52;;
45077;SDS011;60508;42.622;25.416;2023-12-28T05:27:19;6.80;;;2.30;;
45077;SDS011;60508;42.622;25.416;2023-12-28T05:30:07;3.08;;;1.98;;
45077;SDS011;60508;42.622;25.416;2023-12-28T05:32:34;4.45;;;1.83;;
45077;SDS011;60508;42.622;25.416;2023-12-28T05:35:22;6.07;;;2.42;;
45077;SDS011;60508;42.622;25.416;2023-12-28T05:37:49;5.50;;;3.25;;
45077;SDS011;60508;42.622;25.416;2023-12-28T05:40:16;3.53;;;2.25;;
45077;SDS011;60508;42.622;25.416;2023-12-28T05:42:42;4.43;;;2.65;;
45077;SDS011;60508;42.622;25.416;2023-12-28T05:45:09;3.30;;;2.55;;
45077;SDS011;60508;42.622;25.416;2023-12-28T05:47:36;5.18;;;3.22;;
45077;SDS011;60508;42.622;25.416;2023-12-28T05:50:02;9.10;;;3.95;;
45077;SDS011;60508;42.622;25.416;2023-12-28T05:52:49;5.57;;;3.88;;
45077;SDS011;60508;42.622;25.416;2023-12-28T05:55:16;5.28;;;3.65;;
45077;SDS011;60508;42.622;25.416;2023-12-28T05:57:42;9.05;;;4.47;;
45077;SDS011;60508;42.622;25.416;2023-12-28T06:00:29;12.40;;;7.25;;
45077;SDS011;60508;42.622;25.416;2023-12-28T06:02:56;9.75;;;4.22;;
45077;SDS011;60508;42.622;25.416;2023-12-28T06:05:23;7.63;;;2.67;;
45077;SDS011;60508;42.622;25.416;2023-12-28T06:08:10;3.10;;;2.65;;
45077;SDS011;60508;42.622;25.416;2023-12-28T06:10:42;5.90;;;3.53;;
45077;SDS011;60508;42.622;25.416;2023-12-28T06:13:08;6.28;;;4.18;;
45077;SDS011;60508;42.622;25.416;2023-12-28T06:15:35;10.57;;;5.03;;
45077;SDS011;60508;42.622;25.416;2023-12-28T06:18:22;12.82;;;4.80;;
45077;SDS011;60508;42.622;25.416;2023-12-28T06:20:48;10.60;;;5.88;;
45077;SDS011;60508;42.622;25.416;2023-12-28T06:23:15;12.70;;;4.93;;
45077;SDS011;60508;42.622;25.416;2023-12-28T06:25:42;6.25;;;3.50;;
45077;SDS011;60508;42.622;25.416;2023-12-28T06:28:29;5.10;;;3.35;;
45077;SDS011;60508;42.622;25.416;2023-12-28T06:30:57;5.82;;;3.38;;
45077;SDS011;60508;42.622;25.416;2023-12-28T06:33:27;4.80;;;3.00;;
45077;SDS011;60508;42.622;25.416;2023-12-28T06:35:55;5.75;;;3.88;;
45077;SDS011;60508;42.622;25.416;2023-12-28T06:38:24;8.07;;;2.90;;
45077;SDS011;60508;42.622;25.416;2023-12-28T06:40:52;4.22;;;3.05;;
45077;SDS011;60508;42.622;25.416;2023-12-28T06:43:18;4.53;;;3.00;;
45077;SDS011;60508;42.622;25.416;2023-12-28T06:45:45;6.30;;;3.08;;
45077;SDS011;60508;42.622;25.416;2023-12-28T06:48:32;2.90;;;2.25;;
45077;SDS011;60508;42.622;25.416;2023-12-28T06:50:59;4.55;;;2.60;;
45077;SDS011;60508;42.622;25.416;2023-12-28T06:53:46;3.70;;;2.20;;
45077;SDS011;60508;42.622;25.416;2023-12-28T06:56:19;3.55;;;2.55;;
45077;SDS011;60508;42.622;25.416;2023-12-28T06:58:46;7.15;;;4.05;;
45077;SDS011;60508;42.622;25.416;2023-12-28T07:01:13;3.97;;;2.85;;
45077;SDS011;60508;42.622;25.416;2023-12-28T07:03:40;5.68;;;2.90;;
45077;SDS011;60508;42.622;25.416;2023-12-28T07:06:27;4.97;;;3.00;;
45077;SDS011;60508;42.622;25.416;2023-12-28T07:08:53;9.07;;;2.83;;
45077;SDS011;60508;42.622;25.416;2023-12-28T07:11:20;3.42;;;2.40;;
45077;SDS011;60508;42.622;25.416;2023-12-28T07:14:07;4.50;;;2.97;;
45077;SDS011;60508;42.622;25.416;2023-12-28T07:16:34;5.32;;;2.88;;
45077;SDS011;60508;42.622;25.416;2023-12-28T07:19:00;7.03;;;2.40;;
45077;SDS011;60508;42.622;25.416;2023-12-28T07:21:27;5.57;;;2.80;;
45077;SDS011;60508;42.622;25.416;2023-12-28T07:23:54;5.72;;;3.13;;
45077;SDS011;60508;42.622;25.416;2023-12-28T07:26:21;6.63;;;3.90;;
45077;SDS011;60508;42.622;25.416;2023-12-28T07:28:48;11.90;;;4.93;;
45077;SDS011;60508;42.622;25.416;2023-12-28T07:31:34;11.30;;;5.35;;
45077;SDS011;60508;42.622;25.416;2023-12-28T07:34:13;12.20;;;6.05;;
45077;SDS011;60508;42.622;25.416;2023-12-28T07:36:59;10.63;;;6.90;;
45077;SDS011;60508;42.622;25.416;2023-12-28T07:39:28;10.75;;;6.18;;
45077;SDS011;60508;42.622;25.416;2023-12-28T07:42:15;15.90;;;9.43;;
45077;SDS011;60508;42.622;25.416;2023-12-28T07:44:42;14.13;;;7.75;;
45077;SDS011;60508;42.622;25.416;2023-12-28T07:47:09;10.38;;;6.22;;
45077;SDS011;60508;42.622;25.416;2023-12-28T07:49:37;12.00;;;6.68;;
45077;SDS011;60508;42.622;25.416;2023-12-28T07:52:05;13.52;;;7.32;;
45077;SDS011;60508;42.622;25.416;2023-12-28T07:54:51;16.83;;;8.15;;
45077;SDS011;60508;42.622;25.416;2023-12-28T07:57:18;12.70;;;6.63;;
45077;SDS011;60508;42.622;25.416;2023-12-28T08:00:04;12.13;;;3.40;;
45077;SDS011;60508;42.622;25.416;2023-12-28T08:02:32;8.15;;;5.43;;
45077;SDS011;60508;42.622;25.416;2023-12-28T08:05:19;8.07;;;5.20;;
45077;SDS011;60508;42.622;25.416;2023-12-28T08:07:47;6.00;;;3.85;;
45077;SDS011;60508;42.622;25.416;2023-12-28T08:10:14;5.85;;;3.00;;
45077;SDS011;60508;42.622;25.416;2023-12-28T08:12:41;7.32;;;3.17;;
45077;SDS011;60508;42.622;25.416;2023-12-28T08:15:29;5.15;;;3.28;;
45077;SDS011;60508;42.622;25.416;2023-12-28T08:17:56;12.90;;;2.88;;
45077;SDS011;60508;42.622;25.416;2023-12-28T08:20:22;7.10;;;2.80;;
45077;SDS011;60508;42.622;25.416;2023-12-28T08:23:09;4.95;;;2.55;;
45077;SDS011;60508;42.622;25.416;2023-12-28T08:25:55;12.27;;;2.75;;
45077;SDS011;60508;42.622;25.416;2023-12-28T08:28:22;7.32;;;3.00;;
45077;SDS011;60508;42.622;25.416;2023-12-28T08:30:49;4.72;;;2.40;;
45077;SDS011;60508;42.622;25.416;2023-12-28T08:33:16;6.20;;;3.15;;
45077;SDS011;60508;42.622;25.416;2023-12-28T08:35:43;3.85;;;3.30;;
45077;SDS011;60508;42.622;25.416;2023-12-28T08:38:12;12.30;;;3.35;;
45077;SDS011;60508;42.622;25.416;2023-12-28T08:40:59;7.20;;;4.10;;
45077;SDS011;60508;42.622;25.416;2023-12-28T08:43:26;3.55;;;2.42;;
45077;SDS011;60508;42.622;25.416;2023-12-28T08:45:53;4.70;;;2.70;;
45077;SDS011;60508;42.622;25.416;2023-12-28T08:48:20;4.25;;;2.85;;
45077;SDS011;60508;42.622;25.416;2023-12-28T08:51:08;6.60;;;3.85;;
45077;SDS011;60508;42.622;25.416;2023-12-28T08:53:36;5.38;;;2.05;;
45077;SDS011;60508;42.622;25.416;2023-12-28T08:56:12;5.82;;;2.50;;
45077;SDS011;60508;42.622;25.416;2023-12-28T08:58:46;2.72;;;1.95;;
45077;SDS011;60508;42.622;25.416;2023-12-28T09:01:20;8.23;;;3.88;;
45077;SDS011;60508;42.622;25.416;2023-12-28T09:03:51;5.30;;;3.60;;
45077;SDS011;60508;42.622;25.416;2023-12-28T09:06:38;7.32;;;4.43;;
45077;SDS011;60508;42.622;25.416;2023-12-28T09:09:05;6.75;;;3.92;;
45077;SDS011;60508;42.622;25.416;2023-12-28T09:11:32;7.32;;;3.03;;
45077;SDS011;60508;42.622;25.416;2023-12-28T09:14:19;4.15;;;3.10;;
45077;SDS011;60508;42.622;25.416;2023-12-28T09:16:46;5.38;;;3.50;;
45077;SDS011;60508;42.622;25.416;2023-12-28T09:19:13;10.98;;;2.95;;
45077;SDS011;60508;42.622;25.416;2023-12-28T09:22:00;4.47;;;2.90;;
45077;SDS011;60508;42.622;25.416;2023-12-28T09:24:27;5.47;;;2.95;;
45077;SDS011;60508;42.622;25.416;2023-12-28T09:26:53;6.63;;;2.67;;
45077;SDS011;60508;42.622;25.416;2023-12-28T09:29:40;6.18;;;2.80;;
45077;SDS011;60508;42.622;25.416;2023-12-28T09:32:07;6.43;;;3.05;;
45077;SDS011;60508;42.622;25.416;2023-12-28T09:34:34;7.63;;;2.90;;
45077;SDS011;60508;42.622;25.416;2023-12-28T09:37:21;5.22;;;3.08;;
45077;SDS011;60508;42.622;25.416;2023-12-28T09:39:50;8.00;;;4.95;;
45077;SDS011;60508;42.622;25.416;2023-12-28T09:42:17;10.25;;;6.82;;
45077;SDS011;60508;42.622;25.416;2023-12-28T09:44:51;4.05;;;2.78;;
45077;SDS011;60508;42.622;25.416;2023-12-28T09:47:18;6.70;;;4.50;;
45077;SDS011;60508;42.622;25.416;2023-12-28T09:50:05;8.15;;;4.15;;
45077;SDS011;60508;42.622;25.416;2023-12-28T09:52:32;9.15;;;3.65;;
45077;SDS011;60508;42.622;25.416;2023-12-28T09:55:19;7.28;;;3.40;;
45077;SDS011;60508;42.622;25.416;2023-12-28T09:57:46;6.70;;;2.97;;
45077;SDS011;60508;42.622;25.416;2023-12-28T10:00:13;7.25;;;4.38;;
45077;SDS011;60508;42.622;25.416;2023-12-28T10:02:39;4.45;;;3.08;;
45077;SDS011;60508;42.622;25.416;2023-12-28T10:05:15;8.45;;;4.72;;
45077;SDS011;60508;42.622;25.416;2023-12-28T10:07:43;7.78;;;4.47;;
45077;SDS011;60508;42.622;25.416;2023-12-28T10:10:10;9.23;;;3.75;;
45077;SDS011;60508;42.622;25.416;2023-12-28T10:12:37;6.90;;;3.55;;
45077;SDS011;60508;42.622;25.416;2023-12-28T10:15:05;4.60;;;3.55;;
45077;SDS011;60508;42.622;25.416;2023-12-28T10:17:33;13.23;;;6.97;;
45077;SDS011;60508;42.622;25.416;2023-12-28T10:20:03;9.48;;;6.38;;
45077;SDS011;60508;42.622;25.416;2023-12-28T10:22:32;8.63;;;5.60;;
45077;SDS011;60508;42.622;25.416;2023-12-28T10:24:59;14.40;;;8.65;;
45077;SDS011;60508;42.622;25.416;2023-12-28T10:27:26;11.65;;;7.72;;
45077;SDS011;60508;42.622;25.416;2023-12-28T10:29:57;8.82;;;6.57;;
45077;SDS011;60508;42.622;25.416;2023-12-28T10:32:43;7.13;;;5.30;;
45077;SDS011;60508;42.622;25.416;2023-12-28T10:35:11;9.73;;;4.88;;
45077;SDS011;60508;42.622;25.416;2023-12-28T10:37:59;8.02;;;5.22;;
45077;SDS011;60508;42.622;25.416;2023-12-28T10:40:27;10.70;;;5.60;;
45077;SDS011;60508;42.622;25.416;2023-12-28T10:42:54;8.35;;;4.97;;
45077;SDS011;60508;42.622;25.416;2023-12-28T10:45:29;5.00;;;3.60;;
45077;SDS011;60508;42.622;25.416;2023-12-28T10:48:06;8.65;;;5.03;;
45077;SDS011;60508;42.622;25.416;2023-12-28T10:50:54;8.68;;;5.43;;
45077;SDS011;60508;42.622;25.416;2023-12-28T10:56:41;13.65;;;7.90;;
45077;SDS011;60508;42.622;25.416;2023-12-28T11:02:09;13.05;;;7.93;;
45077;SDS011;60508;42.622;25.416;2023-12-28T11:04:41;10.05;;;5.13;;
45077;SDS011;60508;42.622;25.416;2023-12-28T11:07:29;9.23;;;6.90;;
45077;SDS011;60508;42.622;25.416;2023-12-28T11:10:00;13.95;;;7.90;;
45077;SDS011;60508;42.622;25.416;2023-12-28T11:12:27;23.48;;;10.07;;
45077;SDS011;60508;42.622;25.416;2023-12-28T11:14:54;13.35;;;5.65;;
45077;SDS011;60508;42.622;25.416;2023-12-28T11:17:23;18.57;;;11.07;;
45077;SDS011;60508;42.622;25.416;2023-12-28T11:19:55;14.93;;;8.40;;
45077;SDS011;60508;42.622;25.416;2023-12-28T11:22:22;11.00;;;5.57;;
45077;SDS011;60508;42.622;25.416;2023-12-28T11:27:39;12.38;;;7.07;;
45077;SDS011;60508;42.622;25.416;2023-12-28T11:30:07;14.40;;;7.75;;
45077;SDS011;60508;42.622;25.416;2023-12-28T11:32:57;16.48;;;5.55;;
45077;SDS011;60508;42.622;25.416;2023-12-28T11:35:24;10.20;;;7.80;;
45077;SDS011;60508;42.622;25.416;2023-12-28T11:38:00;10.88;;;4.05;;
45077;SDS011;60508;42.622;25.416;2023-12-28T11:40:32;6.22;;;4.55;;
45077;SDS011;60508;42.622;25.416;2023-12-28T11:43:27;10.55;;;4.25;;
45077;SDS011;60508;42.622;25.416;2023-12-28T11:45:59;18.38;;;8.18;;
45077;SDS011;60508;42.622;25.416;2023-12-28T11:48:27;13.10;;;6.72;;
45077;SDS011;60508;42.622;25.416;2023-12-28T11:50:55;8.20;;;3.10;;
45077;SDS011;60508;42.622;25.416;2023-12-28T11:53:43;6.63;;;3.55;;
45077;SDS011;60508;42.622;25.416;2023-12-28T11:56:14;5.80;;;2.83;;
45077;SDS011;60508;42.622;25.416;2023-12-28T11:58:42;5.05;;;3.10;;
45077;SDS011;60508;42.622;25.416;2023-12-28T12:01:32;5.90;;;3.55;;
45077;SDS011;60508;42.622;25.416;2023-12-28T12:03:59;6.28;;;3.28;;
45077;SDS011;60508;42.622;25.416;2023-12-28T12:06:26;5.15;;;3.03;;
45077;SDS011;60508;42.622;25.416;2023-12-28T12:08:52;4.85;;;2.65;;
45077;SDS011;60508;42.622;25.416;2023-12-28T12:11:39;4.68;;;2.67;;
45077;SDS011;60508;42.622;25.416;2023-12-28T12:14:27;5.00;;;2.80;;
45077;SDS011;60508;42.622;25.416;2023-12-28T12:16:57;3.17;;;2.25;;
45077;SDS011;60508;42.622;25.416;2023-12-28T12:19:27;7.05;;;3.00;;
45077;SDS011;60508;42.622;25.416;2023-12-28T12:21:54;7.90;;;2.78;;
45077;SDS011;60508;42.622;25.416;2023-12-28T12:24:43;4.83;;;2.63;;
45077;SDS011;60508;42.622;25.416;2023-12-28T12:27:11;3.60;;;2.42;;
45077;SDS011;60508;42.622;25.416;2023-12-28T12:29:58;2.45;;;2.25;;
45077;SDS011;60508;42.622;25.416;2023-12-28T12:32:24;7.30;;;4.50;;
45077;SDS011;60508;42.622;25.416;2023-12-28T12:34:51;10.20;;;5.68;;
45077;SDS011;60508;42.622;25.416;2023-12-28T12:37:19;5.32;;;2.95;;
45077;SDS011;60508;42.622;25.416;2023-12-28T12:40:06;5.32;;;2.53;;
45077;SDS011;60508;42.622;25.416;2023-12-28T12:42:33;8.57;;;2.85;;
45077;SDS011;60508;42.622;25.416;2023-12-28T12:45:21;4.40;;;2.03;;
45077;SDS011;60508;42.622;25.416;2023-12-28T12:47:53;4.60;;;2.00;;
45077;SDS011;60508;42.622;25.416;2023-12-28T12:50:20;11.55;;;4.18;;
45077;SDS011;60508;42.622;25.416;2023-12-28T12:52:47;6.88;;;3.35;;
45077;SDS011;60508;42.622;25.416;2023-12-28T12:55:14;3.67;;;2.53;;
45077;SDS011;60508;42.622;25.416;2023-12-28T12:57:41;5.65;;;3.00;;
45077;SDS011;60508;42.622;25.416;2023-12-28T13:00:28;7.93;;;3.88;;
45077;SDS011;60508;42.622;25.416;2023-12-28T13:02:55;5.22;;;3.00;;
45077;SDS011;60508;42.622;25.416;2023-12-28T13:05:45;3.45;;;3.13;;
45077;SDS011;60508;42.622;25.416;2023-12-28T13:08:11;7.80;;;4.05;;
45077;SDS011;60508;42.622;25.416;2023-12-28T13:10:39;7.22;;;4.32;;
45077;SDS011;60508;42.622;25.416;2023-12-28T13:13:08;9.20;;;5.93;;
45077;SDS011;60508;42.622;25.416;2023-12-28T13:15:35;8.30;;;6.25;;
45077;SDS011;60508;42.622;25.416;2023-12-28T13:18:02;9.10;;;5.13;;
45077;SDS011;60508;42.622;25.416;2023-12-28T13:20:28;16.08;;;4.97;;
45077;SDS011;60508;42.622;25.416;2023-12-28T13:22:55;6.28;;;4.45;;
45077;SDS011;60508;42.622;25.416;2023-12-28T13:25:23;5.65;;;3.50;;
45077;SDS011;60508;42.622;25.416;2023-12-28T13:28:10;7.63;;;5.70;;
45077;SDS011;60508;42.622;25.416;2023-12-28T13:30:38;17.05;;;5.00;;
45077;SDS011;60508;42.622;25.416;2023-12-28T13:33:06;4.47;;;3.08;;
45077;SDS011;60508;42.622;25.416;2023-12-28T13:35:32;4.85;;;3.03;;
45077;SDS011;60508;42.622;25.416;2023-12-28T13:37:59;12.25;;;3.28;;
45077;SDS011;60508;42.622;25.416;2023-12-28T13:40:47;8.90;;;5.68;;
45077;SDS011;60508;42.622;25.416;2023-12-28T13:43:15;9.15;;;6.38;;
45077;SDS011;60508;42.622;25.416;2023-12-28T13:45:42;10.60;;;7.53;;
45077;SDS011;60508;42.622;25.416;2023-12-28T13:48:29;8.90;;;6.60;;
45077;SDS011;60508;42.622;25.416;2023-12-28T13:50:56;7.43;;;4.78;;
45077;SDS011;60508;42.622;25.416;2023-12-28T13:53:43;14.63;;;7.53;;
45077;SDS011;60508;42.622;25.416;2023-12-28T13:56:09;14.88;;;6.88;;
45077;SDS011;60508;42.622;25.416;2023-12-28T13:58:36;23.63;;;12.48;;
45077;SDS011;60508;42.622;25.416;2023-12-28T14:01:02;18.13;;;10.70;;
45077;SDS011;60508;42.622;25.416;2023-12-28T14:03:29;12.38;;;6.35;;
45077;SDS011;60508;42.622;25.416;2023-12-28T14:06:16;13.00;;;7.40;;
45077;SDS011;60508;42.622;25.416;2023-12-28T14:08:43;12.43;;;5.13;;
45077;SDS011;60508;42.622;25.416;2023-12-28T14:11:10;17.23;;;5.97;;
45077;SDS011;60508;42.622;25.416;2023-12-28T14:13:56;7.93;;;5.22;;
45077;SDS011;60508;42.622;25.416;2023-12-28T14:16:23;7.50;;;4.03;;
45077;SDS011;60508;42.622;25.416;2023-12-28T14:19:10;8.73;;;4.03;;
45077;SDS011;60508;42.622;25.416;2023-12-28T14:21:37;8.93;;;3.70;;
45077;SDS011;60508;42.622;25.416;2023-12-28T14:24:04;4.43;;;2.92;;
45077;SDS011;60508;42.622;25.416;2023-12-28T14:26:34;6.43;;;3.85;;
45077;SDS011;60508;42.622;25.416;2023-12-28T14:29:07;6.38;;;3.75;;
45077;SDS011;60508;42.622;25.416;2023-12-28T14:31:34;7.30;;;4.13;;
45077;SDS011;60508;42.622;25.416;2023-12-28T14:34:01;4.65;;;3.13;;
45077;SDS011;60508;42.622;25.416;2023-12-28T14:36:50;14.30;;;3.90;;
45077;SDS011;60508;42.622;25.416;2023-12-28T14:39:18;6.32;;;3.67;;
45077;SDS011;60508;42.622;25.416;2023-12-28T14:41:45;7.25;;;4.35;;
45077;SDS011;60508;42.622;25.416;2023-12-28T14:44:32;10.40;;;6.05;;
45077;SDS011;60508;42.622;25.416;2023-12-28T14:46:59;12.30;;;6.15;;
45077;SDS011;60508;42.622;25.416;2023-12-28T14:49:46;8.93;;;5.82;;
45077;SDS011;60508;42.622;25.416;2023-12-28T14:52:12;8.18;;;4.97;;
45077;SDS011;60508;42.622;25.416;2023-12-28T14:54:39;12.85;;;6.72;;
45077;SDS011;60508;42.622;25.416;2023-12-28T14:57:05;34.17;;;13.43;;
45077;SDS011;60508;42.622;25.416;2023-12-28T14:59:32;19.73;;;9.32;;
45077;SDS011;60508;42.622;25.416;2023-12-28T15:02:19;12.05;;;6.40;;
45077;SDS011;60508;42.622;25.416;2023-12-28T15:04:45;15.82;;;7.32;;
45077;SDS011;60508;42.622;25.416;2023-12-28T15:07:12;28.77;;;8.77;;
45077;SDS011;60508;42.622;25.416;2023-12-28T15:09:39;14.32;;;6.90;;
45077;SDS011;60508;42.622;25.416;2023-12-28T15:12:26;18.52;;;7.93;;
45077;SDS011;60508;42.622;25.416;2023-12-28T15:14:53;17.52;;;7.80;;